createdAt,value
2023-03-06T00:00:42.020Z,12.67
2023-03-06T00:03:20.406Z,12.27
2023-03-06T00:05:48.342Z,12.63
2023-03-06T00:08:16.180Z,12.33
2023-03-06T00:10:44.697Z,12.87
2023-03-06T00:13:14.693Z,13.20
2023-03-06T00:15:42.605Z,12.87
2023-03-06T00:18:10.386Z,12.77
2023-03-06T00:20:40.583Z,14.50
2023-03-06T00:23:09.067Z,14.33
2023-03-06T00:25:39.010Z,15.47
2023-03-06T00:28:06.963Z,15.93
2023-03-06T00:30:35.225Z,15.23
2023-03-06T00:33:02.596Z,14.50
2023-03-06T00:35:31.987Z,15.07
2023-03-06T00:37:59.976Z,15.50
2023-03-06T00:40:27.761Z,13.27
2023-03-06T00:42:55.518Z,14.93
2023-03-06T00:45:23.413Z,13.73
2023-03-06T00:47:51.300Z,14.20
2023-03-06T00:50:19.135Z,16.30
2023-03-06T00:52:46.479Z,16.83
2023-03-06T00:55:14.268Z,18.07
2023-03-06T00:57:41.740Z,18.43
2023-03-06T01:00:10.987Z,18.07
2023-03-06T01:02:38.444Z,17.77
2023-03-06T01:05:06.987Z,19.83
2023-03-06T01:07:36.626Z,18.97
2023-03-06T01:10:08.192Z,18.47
2023-03-06T01:12:36.316Z,20.37
2023-03-06T01:15:05.582Z,19.20
2023-03-06T01:17:33.119Z,20.67
2023-03-06T01:20:00.713Z,19.97
2023-03-06T01:22:28.265Z,22.17
2023-03-06T01:24:55.881Z,19.97
2023-03-06T01:27:23.566Z,21.80
2023-03-06T01:29:51.204Z,21.37
2023-03-06T01:32:18.573Z,22.10
2023-03-06T01:34:46.655Z,22.50
2023-03-06T01:37:14.041Z,24.87
2023-03-06T01:39:41.992Z,24.40
2023-03-06T01:42:09.921Z,25.63
2023-03-06T01:44:37.775Z,23.67
2023-03-06T01:47:05.368Z,21.27
2023-03-06T01:49:39.389Z,23.27
2023-03-06T01:52:12.017Z,22.73
2023-03-06T01:54:46.798Z,21.57
2023-03-06T01:57:27.668Z,21.47
2023-03-06T02:00:04.306Z,21.07
2023-03-06T02:02:44.183Z,18.97
2023-03-06T02:05:12.857Z,22.10
2023-03-06T02:07:42.596Z,21.63
2023-03-06T02:10:15.477Z,22.60
2023-03-06T02:12:44.366Z,21.23
2023-03-06T02:15:19.216Z,22.23
2023-03-06T02:17:48.803Z,21.30
2023-03-06T02:20:33.668Z,21.47
2023-03-06T02:23:21.273Z,21.13
2023-03-06T02:25:51.233Z,19.47
2023-03-06T02:28:21.988Z,20.67
2023-03-06T02:30:52.349Z,21.77
2023-03-06T02:33:23.191Z,20.03
2023-03-06T02:35:54.477Z,19.50
2023-03-06T02:38:27.446Z,18.43
2023-03-06T02:40:58.156Z,19.17
2023-03-06T02:43:33.222Z,20.23
2023-03-06T02:46:00.959Z,18.93
2023-03-06T02:48:28.464Z,18.63
2023-03-06T02:50:56.535Z,19.40
2023-03-06T02:53:24.687Z,20.30
2023-03-06T02:55:52.689Z,19.23
2023-03-06T02:58:21.483Z,19.87
2023-03-06T03:00:49.962Z,20.27
2023-03-06T03:03:18.466Z,16.80
2023-03-06T03:05:46.911Z,18.20
2023-03-06T03:08:28.976Z,18.50
2023-03-06T03:11:01.399Z,19.00
2023-03-06T03:13:34.537Z,19.37
2023-03-06T03:16:08.051Z,19.83
2023-03-06T03:18:35.817Z,19.17
2023-03-06T03:21:12.342Z,20.20
2023-03-06T03:23:40.323Z,19.70
2023-03-06T03:26:12.738Z,19.53
2023-03-06T03:28:43.944Z,19.20
2023-03-06T03:31:14.126Z,19.30
2023-03-06T03:33:41.936Z,18.73
2023-03-06T03:36:11.275Z,19.30
2023-03-06T03:38:42.691Z,18.63
2023-03-06T03:41:11.130Z,18.63
2023-03-06T03:43:38.646Z,23.20
2023-03-06T03:46:06.653Z,20.40
2023-03-06T03:48:34.791Z,21.17
2023-03-06T03:51:13.967Z,19.53
2023-03-06T03:53:46.077Z,19.73
2023-03-06T03:56:16.499Z,18.60
2023-03-06T03:58:53.037Z,18.37
2023-03-06T04:01:22.002Z,20.17
2023-03-06T04:03:50.085Z,19.30
2023-03-06T04:06:19.175Z,19.00
2023-03-06T04:08:47.790Z,20.00
2023-03-06T04:11:16.682Z,18.90
2023-03-06T04:13:45.306Z,20.83
2023-03-06T04:16:13.399Z,22.13
2023-03-06T04:18:41.393Z,21.97
2023-03-06T04:21:09.761Z,23.60
2023-03-06T04:23:37.993Z,30.27
2023-03-06T04:26:07.106Z,28.27
2023-03-06T04:28:35.118Z,29.87
2023-03-06T04:31:03.501Z,29.43
2023-03-06T04:33:32.894Z,25.17
2023-03-06T04:36:00.731Z,24.27
2023-03-06T04:38:31.428Z,19.80
2023-03-06T04:41:02.483Z,19.27
2023-03-06T04:43:30.472Z,17.87
2023-03-06T04:45:58.994Z,19.30
2023-03-06T04:48:26.683Z,19.70
2023-03-06T04:50:54.778Z,20.80
2023-03-06T04:53:22.781Z,19.97
2023-03-06T04:55:50.947Z,20.03
2023-03-06T04:58:18.702Z,21.00
2023-03-06T05:00:46.942Z,25.80
2023-03-06T05:03:15.076Z,26.87
2023-03-06T05:05:43.324Z,25.23
2023-03-06T05:08:16.282Z,24.33
2023-03-06T05:10:44.623Z,24.10
2023-03-06T05:13:12.540Z,27.43
2023-03-06T05:15:43.248Z,33.40
2023-03-06T05:18:11.024Z,31.00
2023-03-06T05:20:39.243Z,29.90
2023-03-06T05:23:06.964Z,32.97
2023-03-06T05:25:35.128Z,33.47
2023-03-06T05:28:03.134Z,35.40
2023-03-06T05:30:31.334Z,38.83
2023-03-06T05:32:59.519Z,33.77
2023-03-06T05:35:27.823Z,35.93
2023-03-06T05:37:55.929Z,37.03
2023-03-06T05:40:24.175Z,37.20
2023-03-06T05:42:52.048Z,35.17
2023-03-06T05:45:20.332Z,34.80
2023-03-06T05:47:48.199Z,39.77
2023-03-06T05:50:16.408Z,40.13
2023-03-06T05:52:43.969Z,39.27
2023-03-06T05:55:13.036Z,36.10
2023-03-06T05:57:40.906Z,34.07
2023-03-06T06:00:10.072Z,29.47
2023-03-06T06:02:41.020Z,28.43
2023-03-06T06:05:12.573Z,30.30
2023-03-06T06:07:41.105Z,29.63
2023-03-06T06:10:11.183Z,28.83
2023-03-06T06:12:39.701Z,36.90
2023-03-06T06:15:08.236Z,42.03
2023-03-06T06:17:36.033Z,46.87
2023-03-06T06:20:04.461Z,45.87
2023-03-06T06:22:32.584Z,40.90
2023-03-06T06:25:00.889Z,41.93
2023-03-06T06:27:29.046Z,40.97
2023-03-06T06:29:57.503Z,39.77
2023-03-06T06:32:25.484Z,40.73
2023-03-06T06:34:53.715Z,40.33
2023-03-06T06:37:21.399Z,40.90
2023-03-06T06:39:49.033Z,40.67
2023-03-06T06:42:38.929Z,37.57
2023-03-06T06:45:07.864Z,36.87
2023-03-06T06:47:38.497Z,34.57
2023-03-06T06:50:07.323Z,31.37
2023-03-06T06:52:35.634Z,25.63
2023-03-06T06:55:04.035Z,25.50
2023-03-06T06:57:31.844Z,20.63
2023-03-06T06:59:59.966Z,20.20
2023-03-06T07:02:27.810Z,22.63
2023-03-06T07:05:04.054Z,22.07
2023-03-06T07:07:37.459Z,23.77
2023-03-06T07:10:08.668Z,23.90
2023-03-06T07:12:37.756Z,24.87
2023-03-06T07:15:06.536Z,25.47
2023-03-06T07:17:34.464Z,26.03
2023-03-06T07:20:03.377Z,24.80
2023-03-06T07:22:41.411Z,25.07
2023-03-06T07:25:16.881Z,28.17
2023-03-06T07:27:46.996Z,29.83
2023-03-06T07:30:20.970Z,31.37
2023-03-06T07:32:48.630Z,33.50
2023-03-06T07:35:20.494Z,31.30
2023-03-06T07:37:48.667Z,32.60
2023-03-06T07:40:16.804Z,34.27
2023-03-06T07:42:44.855Z,33.00
2023-03-06T07:45:17.038Z,33.10
2023-03-06T07:47:45.048Z,32.17
2023-03-06T07:50:13.433Z,34.53
2023-03-06T07:52:40.844Z,36.33
2023-03-06T07:55:09.868Z,34.10
2023-03-06T07:57:38.587Z,31.80
2023-03-06T08:00:10.090Z,31.37
2023-03-06T08:02:43.524Z,32.10
2023-03-06T08:05:14.593Z,31.47
2023-03-06T08:07:43.969Z,32.13
2023-03-06T08:10:17.586Z,38.60
2023-03-06T08:12:45.112Z,62.67
2023-03-06T08:15:13.471Z,87.03
2023-03-06T08:17:41.513Z,86.10
2023-03-06T08:20:10.558Z,112.60
2023-03-06T08:22:38.862Z,92.07
2023-03-06T08:25:08.033Z,63.67
2023-03-06T08:27:35.660Z,56.10
2023-03-06T08:30:04.245Z,30.53
2023-03-06T08:32:31.852Z,22.80
2023-03-06T08:34:59.536Z,25.03
2023-03-06T08:37:26.940Z,28.73
2023-03-06T08:39:54.633Z,36.53
2023-03-06T08:42:22.291Z,40.23
2023-03-06T08:44:50.827Z,39.10
2023-03-06T08:47:18.458Z,34.83
2023-03-06T08:49:46.072Z,28.93
2023-03-06T08:52:13.899Z,29.37
2023-03-06T08:54:41.581Z,29.67
2023-03-06T08:57:09.579Z,30.30
2023-03-06T08:59:37.608Z,28.90
2023-03-06T09:02:06.824Z,29.63
2023-03-06T09:04:34.638Z,28.83
2023-03-06T09:07:01.929Z,28.63
2023-03-06T09:09:29.475Z,30.80
2023-03-06T09:11:57.237Z,28.80
2023-03-06T09:14:24.853Z,28.40
2023-03-06T09:16:52.228Z,30.30
2023-03-06T09:19:19.871Z,29.30
2023-03-06T09:21:48.499Z,30.33
2023-03-06T09:24:16.290Z,32.43
2023-03-06T09:26:46.674Z,30.87
2023-03-06T09:29:16.631Z,32.00
2023-03-06T09:31:44.923Z,32.87
2023-03-06T09:34:12.509Z,33.40
2023-03-06T09:36:54.921Z,31.10
2023-03-06T09:39:24.123Z,30.90
2023-03-06T09:41:52.235Z,29.73
2023-03-06T09:44:30.313Z,26.33
2023-03-06T09:47:07.160Z,25.53
2023-03-06T09:49:57.664Z,27.60
2023-03-06T09:53:05.838Z,26.73
2023-03-06T09:55:38.182Z,26.20
2023-03-06T09:58:11.590Z,25.40
2023-03-06T10:00:59.916Z,26.10
2023-03-06T10:03:46.236Z,24.67
2023-03-06T10:06:24.186Z,22.90
2023-03-06T10:09:10.957Z,22.20
2023-03-06T10:11:51.815Z,19.47
2023-03-06T10:14:32.408Z,18.17
2023-03-06T10:17:01.939Z,19.30
2023-03-06T10:19:35.875Z,15.73
2023-03-06T10:22:27.463Z,16.33
2023-03-06T10:25:09.035Z,16.10
2023-03-06T10:27:50.406Z,15.87
2023-03-06T10:30:39.871Z,17.53
2023-03-06T10:33:16.951Z,14.53
2023-03-06T10:35:48.706Z,15.13
2023-03-06T10:38:27.141Z,12.53
2023-03-06T10:41:07.424Z,14.07
2023-03-06T10:43:37.146Z,16.90
2023-03-06T10:46:06.189Z,15.37
2023-03-06T10:48:40.745Z,13.30
2023-03-06T10:51:20.032Z,14.40
2023-03-06T10:53:55.274Z,13.50
2023-03-06T10:56:28.715Z,15.10
2023-03-06T10:59:19.545Z,18.20
2023-03-06T11:01:52.491Z,16.10
2023-03-06T11:04:36.713Z,16.93
2023-03-06T11:07:07.341Z,16.70
2023-03-06T11:09:35.871Z,18.93
2023-03-06T11:12:15.107Z,18.77
2023-03-06T11:14:43.135Z,16.80
2023-03-06T11:17:29.169Z,19.17
2023-03-06T11:20:22.229Z,12.70
2023-03-06T11:23:02.967Z,14.83
2023-03-06T11:25:59.778Z,17.73
2023-03-06T11:28:40.093Z,22.07
2023-03-06T11:31:48.021Z,15.37
2023-03-06T11:34:36.588Z,11.77
2023-03-06T11:37:26.185Z,10.57
2023-03-06T11:39:56.634Z,10.43
2023-03-06T11:42:32.851Z,13.93
2023-03-06T11:45:03.346Z,13.80
2023-03-06T11:47:43.576Z,11.80
2023-03-06T11:50:35.061Z,9.10
2023-03-06T11:53:07.096Z,9.90
2023-03-06T11:56:03.622Z,9.40
2023-03-06T11:58:51.327Z,8.87
2023-03-06T12:01:36.128Z,8.93
2023-03-06T12:04:17.038Z,13.63
2023-03-06T12:07:11.998Z,10.53
2023-03-06T12:09:55.092Z,10.67
2023-03-06T12:13:10.889Z,10.33
2023-03-06T12:16:02.500Z,19.00
2023-03-06T12:18:48.152Z,23.27
2023-03-06T12:21:38.516Z,21.40
2023-03-06T12:24:25.979Z,21.57
2023-03-06T12:27:09.404Z,21.03
2023-03-06T12:30:09.660Z,21.20
2023-03-06T12:32:52.938Z,22.97
2023-03-06T12:35:54.724Z,22.30
2023-03-06T12:38:45.597Z,50.27
2023-03-06T12:41:22.516Z,26.20
2023-03-06T12:44:19.428Z,19.03
2023-03-06T12:47:00.839Z,23.07
2023-03-06T12:49:32.867Z,26.10
2023-03-06T12:52:02.329Z,27.70
2023-03-06T12:54:35.258Z,75.23
2023-03-06T12:57:04.802Z,20.83
2023-03-06T12:59:36.189Z,27.30
2023-03-06T13:02:28.206Z,17.47
2023-03-06T13:05:34.853Z,15.07
2023-03-06T13:08:20.541Z,13.20
2023-03-06T13:11:06.527Z,12.50
2023-03-06T13:13:43.505Z,13.47
2023-03-06T13:16:14.457Z,13.67
2023-03-06T13:18:41.897Z,13.20
2023-03-06T13:21:48.816Z,12.60
2023-03-06T13:24:16.063Z,13.13
2023-03-06T13:26:43.757Z,12.73
2023-03-06T13:29:36.704Z,11.37
2023-03-06T13:32:30.525Z,10.40
2023-03-06T13:34:58.255Z,8.37
2023-03-06T13:37:26.108Z,7.20
2023-03-06T13:40:00.062Z,8.63
2023-03-06T13:42:32.372Z,7.37
2023-03-06T13:45:17.070Z,8.23
2023-03-06T13:48:33.346Z,7.00
2023-03-06T13:50:45.036Z,8.13
2023-03-06T13:53:54.800Z,9.40
2023-03-06T13:56:25.442Z,9.67
2023-03-06T13:59:23.779Z,10.93
2023-03-06T14:02:18.297Z,9.50
2023-03-06T14:04:54.738Z,11.17
2023-03-06T14:07:26.829Z,10.50
2023-03-06T14:10:16.163Z,10.67
2023-03-06T14:13:00.230Z,10.63
2023-03-06T14:15:47.264Z,13.20
2023-03-06T14:18:15.107Z,11.30
2023-03-06T14:20:59.497Z,11.00
2023-03-06T14:23:42.928Z,11.07
2023-03-06T14:26:26.175Z,10.30
2023-03-06T14:28:58.899Z,8.73
2023-03-06T14:31:33.733Z,8.27
2023-03-06T14:34:16.790Z,8.53
2023-03-06T14:36:50.794Z,7.53
2023-03-06T14:39:34.251Z,7.67
2023-03-06T14:42:20.910Z,10.10
2023-03-06T14:44:49.973Z,7.73
2023-03-06T14:47:31.484Z,10.17
2023-03-06T14:50:25.876Z,8.77
2023-03-06T14:53:04.395Z,8.20
2023-03-06T14:55:36.774Z,9.03
2023-03-06T14:58:12.077Z,7.50
2023-03-06T15:00:50.184Z,7.90
2023-03-06T15:03:26.170Z,10.47
2023-03-06T15:05:55.412Z,10.50
2023-03-06T15:08:29.008Z,11.57
2023-03-06T15:11:02.769Z,10.57
2023-03-06T15:13:32.525Z,8.47
2023-03-06T15:16:00.238Z,10.00
2023-03-06T15:18:36.693Z,11.63
2023-03-06T15:21:37.936Z,11.47
2023-03-06T15:24:33.946Z,13.03
2023-03-06T15:27:07.481Z,11.13
2023-03-06T15:29:38.668Z,10.93
2023-03-06T15:32:32.061Z,15.73
2023-03-06T15:35:38.222Z,18.90
2023-03-06T15:38:45.049Z,24.20
2023-03-06T15:41:39.367Z,19.47
2023-03-06T15:44:13.376Z,16.10
2023-03-06T15:46:42.178Z,14.40
2023-03-06T15:49:14.966Z,20.73
2023-03-06T15:51:43.028Z,54.70
2023-03-06T15:54:12.683Z,64.53
2023-03-06T15:56:44.216Z,54.40
2023-03-06T15:59:24.376Z,54.97
2023-03-06T16:01:53.480Z,32.53
2023-03-06T16:04:21.190Z,62.13
2023-03-06T16:06:49.387Z,58.53
2023-03-06T16:09:16.991Z,71.90
2023-03-06T16:11:45.253Z,77.70
2023-03-06T16:14:24.105Z,51.47
2023-03-06T16:16:55.741Z,44.80
2023-03-06T16:19:27.582Z,31.87
2023-03-06T16:21:57.027Z,24.80
2023-03-06T16:24:26.412Z,13.77
2023-03-06T16:26:55.421Z,10.57
2023-03-06T16:29:26.123Z,12.17
2023-03-06T16:31:56.614Z,8.93
2023-03-06T16:34:25.295Z,7.03
2023-03-06T16:36:53.991Z,8.80
2023-03-06T16:39:24.321Z,9.97
2023-03-06T16:41:52.312Z,11.57
2023-03-06T16:44:21.294Z,10.83
2023-03-06T16:46:50.530Z,9.80
2023-03-06T16:49:22.344Z,9.73
2023-03-06T16:51:51.525Z,9.93
2023-03-06T16:54:19.528Z,13.13
2023-03-06T16:56:47.460Z,14.40
2023-03-06T16:59:14.938Z,13.77
2023-03-06T17:01:43.302Z,13.33
2023-03-06T17:04:11.743Z,12.10
2023-03-06T17:06:39.880Z,12.93
2023-03-06T17:09:07.816Z,12.27
2023-03-06T17:11:38.825Z,11.90
2023-03-06T17:14:07.210Z,11.37
2023-03-06T17:16:39.333Z,10.93
2023-03-06T17:19:07.646Z,12.33
2023-03-06T17:21:39.791Z,12.63
2023-03-06T17:24:08.549Z,12.97
2023-03-06T17:26:37.423Z,16.07
2023-03-06T17:29:06.914Z,17.70
2023-03-06T17:31:35.175Z,15.73
2023-03-06T17:34:03.168Z,13.50
2023-03-06T17:36:31.950Z,15.93
2023-03-06T17:39:02.117Z,15.57
2023-03-06T17:41:32.965Z,16.27
2023-03-06T17:44:01.943Z,15.90
2023-03-06T17:46:34.942Z,16.57
2023-03-06T17:49:03.042Z,14.97
2023-03-06T17:51:31.151Z,15.33
2023-03-06T17:53:59.025Z,15.93
2023-03-06T17:56:27.010Z,14.83
2023-03-06T17:58:55.525Z,13.57
2023-03-06T18:01:30.570Z,15.80
2023-03-06T18:03:59.526Z,14.23
2023-03-06T18:06:30.397Z,13.97
2023-03-06T18:08:58.150Z,13.57
2023-03-06T18:11:26.874Z,13.37
2023-03-06T18:13:54.637Z,14.50
2023-03-06T18:16:25.203Z,14.20
2023-03-06T18:18:55.028Z,19.37
2023-03-06T18:21:24.424Z,13.47
2023-03-06T18:23:52.879Z,12.90
2023-03-06T18:26:27.151Z,12.50
2023-03-06T18:29:01.958Z,13.33
2023-03-06T18:31:40.217Z,12.73
2023-03-06T18:34:13.920Z,14.80
2023-03-06T18:36:44.143Z,14.13
2023-03-06T18:39:15.657Z,14.27
2023-03-06T18:41:44.238Z,17.77
2023-03-06T18:44:15.341Z,17.47
2023-03-06T18:46:43.968Z,16.93
2023-03-06T18:49:13.393Z,18.67
2023-03-06T18:51:41.560Z,17.83
2023-03-06T18:54:10.653Z,17.23
2023-03-06T18:56:40.837Z,20.67
2023-03-06T18:59:08.421Z,20.80
2023-03-06T19:01:37.866Z,21.33
2023-03-06T19:04:06.250Z,19.50
2023-03-06T19:06:34.710Z,19.17
2023-03-06T19:09:02.517Z,18.27
2023-03-06T19:11:32.396Z,18.90
2023-03-06T19:14:00.128Z,18.73
2023-03-06T19:16:30.391Z,18.93
2023-03-06T19:18:59.444Z,18.10
2023-03-06T19:21:29.119Z,17.07
2023-03-06T19:23:58.270Z,17.23
2023-03-06T19:26:28.554Z,17.97
2023-03-06T19:28:56.317Z,16.33
2023-03-06T19:31:29.134Z,17.33
2023-03-06T19:33:58.340Z,17.23
2023-03-06T19:36:33.592Z,18.03
2023-03-06T19:39:05.051Z,19.63
2023-03-06T19:41:34.979Z,20.73
2023-03-06T19:44:03.479Z,21.00
2023-03-06T19:46:32.482Z,19.93
2023-03-06T19:49:03.834Z,20.63
2023-03-06T19:51:31.719Z,22.87
2023-03-06T19:53:59.284Z,23.43
2023-03-06T19:56:29.369Z,26.73
2023-03-06T19:58:57.644Z,28.53
2023-03-06T20:01:27.432Z,29.83
2023-03-06T20:03:59.933Z,28.43
2023-03-06T20:06:31.720Z,27.70
2023-03-06T20:08:59.434Z,28.40
2023-03-06T20:11:32.893Z,25.77
2023-03-06T20:14:02.481Z,25.53
2023-03-06T20:16:31.630Z,25.03
2023-03-06T20:19:00.764Z,23.83
2023-03-06T20:21:31.846Z,23.90
2023-03-06T20:23:59.879Z,23.30
2023-03-06T20:26:29.242Z,23.57
2023-03-06T20:28:57.710Z,23.20
2023-03-06T20:31:28.444Z,23.67
2023-03-06T20:33:58.469Z,23.87
2023-03-06T20:36:37.607Z,24.13
2023-03-06T20:39:08.463Z,27.67
2023-03-06T20:41:36.408Z,28.37
2023-03-06T20:44:06.076Z,27.83
2023-03-06T20:46:35.324Z,27.67
2023-03-06T20:49:02.944Z,26.47
2023-03-06T20:51:32.796Z,25.97
2023-03-06T20:54:02.069Z,27.53
2023-03-06T20:56:32.339Z,27.00
2023-03-06T20:58:59.881Z,29.47
2023-03-06T21:01:33.457Z,28.00
2023-03-06T21:04:01.878Z,28.20
2023-03-06T21:06:30.298Z,29.97
2023-03-06T21:08:59.036Z,29.33
2023-03-06T21:11:27.813Z,31.90
2023-03-06T21:13:55.702Z,32.17
2023-03-06T21:16:25.669Z,32.97
2023-03-06T21:18:55.734Z,38.73
2023-03-06T21:21:27.670Z,40.70
2023-03-06T21:23:55.214Z,42.50
2023-03-06T21:26:25.301Z,43.30
2023-03-06T21:28:53.287Z,42.47
2023-03-06T21:31:22.221Z,42.07
2023-03-06T21:33:50.817Z,39.33
2023-03-06T21:36:21.640Z,36.80
2023-03-06T21:38:51.033Z,35.43
2023-03-06T21:41:20.881Z,36.73
2023-03-06T21:43:48.334Z,36.13
2023-03-06T21:46:16.182Z,35.93
2023-03-06T21:48:43.627Z,34.80
2023-03-06T21:51:16.158Z,33.50
2023-03-06T21:53:46.820Z,32.77
2023-03-06T21:56:17.512Z,36.43
2023-03-06T21:58:45.837Z,35.63
2023-03-06T22:01:23.979Z,35.37
2023-03-06T22:03:51.469Z,36.50
2023-03-06T22:06:22.638Z,35.90
2023-03-06T22:08:50.168Z,36.70
2023-03-06T22:11:26.866Z,35.00
2023-03-06T22:13:55.766Z,36.27
2023-03-06T22:16:24.806Z,35.70
2023-03-06T22:18:52.890Z,35.57
2023-03-06T22:21:22.466Z,35.13
2023-03-06T22:23:57.903Z,35.93
2023-03-06T22:26:27.882Z,35.87
2023-03-06T22:28:55.332Z,35.40
2023-03-06T22:31:25.933Z,36.97
2023-03-06T22:33:56.292Z,36.30
2023-03-06T22:36:24.933Z,35.93
2023-03-06T22:38:58.674Z,38.90
2023-03-06T22:41:27.957Z,37.57
2023-03-06T22:43:57.556Z,37.07
2023-03-06T22:46:26.313Z,37.67
2023-03-06T22:48:56.852Z,40.40
2023-03-06T22:51:24.932Z,41.43
2023-03-06T22:53:52.691Z,40.83
2023-03-06T22:56:21.882Z,43.97
2023-03-06T22:58:49.386Z,41.40
2023-03-06T23:01:23.517Z,45.17
2023-03-06T23:03:53.805Z,45.27
2023-03-06T23:06:26.231Z,43.57
2023-03-06T23:09:00.939Z,46.67
2023-03-06T23:11:29.784Z,47.50
2023-03-06T23:14:17.245Z,54.97
2023-03-06T23:17:04.053Z,49.00
2023-03-06T23:19:50.573Z,52.00
2023-03-06T23:22:37.162Z,52.33
2023-03-06T23:25:23.523Z,52.37
2023-03-06T23:27:51.123Z,51.10
2023-03-06T23:30:18.666Z,53.77
2023-03-06T23:32:46.276Z,50.43
2023-03-06T23:35:14.527Z,51.60
2023-03-06T23:37:42.256Z,51.47
2023-03-06T23:40:10.610Z,54.50
2023-03-06T23:42:38.350Z,55.50
2023-03-06T23:45:07.498Z,53.30
2023-03-06T23:47:35.718Z,53.47
2023-03-06T23:50:03.284Z,56.07
2023-03-06T23:52:30.904Z,60.03
2023-03-06T23:54:58.138Z,56.53
2023-03-06T23:57:25.765Z,57.30
2023-03-06T23:59:53.531Z,57.60
